Palatka, Florida
Current Conditions -  °F | °C
As of 2:35 AM on Wednesday 26 Nov 2014 (Local Time) from K28J Reporting Station
Haze Haze  
Wind Chill: 63°   Ceiling: 400
Heat Index: 63°   Visibility: 1.2mi
Dew Point: 63°   Wind: 6mph
Humidity: 100%   Direction: 320°NW
Pressure: 29.87"   Gusts: NA
Location:  29.65°N, 81.64°W
Report Text: K28J 260735Z AUTO 32005KT 1 1/4SM BR OVC004 17/17 A2987 RMK AO2
Loading
Personal Weather Stations






























Interactive Weather Map New forecast layout! Learn more

10-Day Weather Forecast

Advertisements
Track Severe Weather on mobile